• Join FlightAware (Why Join?)
  • Login
  • US Flag 
11:21PM EDT


 

Airport Tracker/Info


-or-


 

Live Flight TrackerFlight Track Log ✈ USC105 ✈ 24-Jun-2013 ✈ KYIP - KDPA

Flight Track Log - Related Links

Times and Time Zones

All times are in EDT time to prevent confusion due to time zone crossing. See the USC105 flight status page for this flight to view local times or setup timezone preferences in your user account.

Time Position Orientation Groundspeed Altitude Reporting Facility
EDT Latitude Longitude Course Direction KTS MPH feet Rate Location/Type
12:27AM 42.2147 -83.5858 251° West 104 120 2,000  Level Cleveland Center
12:28AM 42.2136 -83.6278 268° West 114 131 2,800 780 Climbing Cleveland Center
12:29AM 42.2167 -83.6672 276° West 110 127 3,700 840 Climbing Cleveland Center
12:30AM 42.2133 -83.7119 264° West 113 130 4,600 840 Climbing Cleveland Center
12:31AM 42.2142 -83.7569 271° West 115 132 5,400 600 Climbing Cleveland Center
12:32AM 42.2089 -83.8014 261° West 134 154 5,900 240 Climbing Cleveland Center
12:33AM 42.2072 -83.8575 268° West 158 182 6,000  Climbing Cleveland Center
12:35AM 42.1992 -83.9789 265° West 157 181 6,000  Level Chicago Center
12:36AM 42.1964 -84.0378 266° West 157 181 6,000  Level Chicago Center
12:37AM 42.1931 -84.0972 266° West 158 182 6,000  Level Chicago Center
12:38AM 42.1875 -84.1583 263° West 159 183 6,000  Level Chicago Center
12:39AM 42.1850 -84.2189 267° West 161 185 6,000  Level Chicago Center
12:40AM 42.1817 -84.2783 266° West 161 185 6,000  Level Chicago Center
12:41AM 42.1783 -84.3375 266° West 160 184 6,000  Level Chicago Center
12:42AM 42.1750 -84.3972 266° West 161 185 6,000  Level Chicago Center
12:43AM 42.1719 -84.4675 267° West 157 181 6,000  Level Chicago Center
12:44AM 42.1683 -84.5250 265° West 155 178 6,000  Level Chicago Center
12:45AM 42.1656 -84.5808 266° West 156 180 6,000  Level Chicago Center
12:46AM 42.1622 -84.6367 265° West 153 176 6,000  Level Chicago Center
12:47AM 42.1597 -84.6928 267° West 150 173 6,000  Level Chicago Center
12:48AM 42.1564 -84.7500 266° West 153 176 6,000  Level Chicago Center
12:49AM 42.1539 -84.8047 266° West 150 173 6,000  Level Chicago Center
12:50AM 42.1503 -84.8581 265° West 145 167 6,000  Level Chicago Center
12:51AM 42.1472 -84.9103 266° West 143 165 6,000  Level Chicago Center
12:52AM 42.1447 -84.9633 266° West 142 163 6,000  Level Chicago Center
12:53AM 42.1414 -85.0147 265° West 140 161 6,000  Level Chicago Center
12:54AM 42.1378 -85.0756 265° West 138 159 6,000  Level Chicago Center
12:55AM 42.1353 -85.1283 266° West 141 162 6,000  Level Chicago Center
12:56AM 42.1322 -85.1808 266° West 141 162 6,000  Level Chicago Center
12:57AM 42.1289 -85.2333 265° West 141 162 6,000  Level Chicago Center
12:58AM 42.1261 -85.2872 266° West 144 166 6,000  Level Chicago Center
12:59AM 42.1217 -85.3411 264° West 146 168 6,000  Level Chicago Center
01:00AM 42.1200 -85.3944 268° West 144 166 6,000  Level Chicago Center
01:01AM 42.1156 -85.4489 264° West 146 168 6,000  Level Chicago Center
01:02AM 42.1117 -85.5058 265° West 151 174 6,000  Level Chicago Center
01:03AM 42.1081 -85.5608 265° West 149 171 6,000  Level Chicago Center
01:04AM 42.1053 -85.6164 266° West 148 170 6,000  Level Chicago Center
01:05AM 42.1011 -85.6719 264° West 148 170 6,000  Level Chicago Center
01:06AM 42.0972 -85.7258 264° West 147 169 6,000  Level Chicago Center
01:07AM 42.0947 -85.7822 267° West 149 171 6,000  Level Chicago Center
01:08AM 42.0911 -85.8364 265° West 148 170 6,000  Level Chicago Center
01:09AM 42.0878 -85.8983 266° West 142 163 6,000  Level Chicago Center
01:10AM 42.0839 -85.9539 265° West 147 169 6,000  Level Chicago Center
01:11AM 42.0800 -86.0094 265° West 150 173 6,000  Level Chicago Center
01:12AM 42.0764 -86.0664 265° West 151 174 6,000  Level Chicago Center
01:13AM 42.0728 -86.1228 265° West 152 175 6,000  Level Chicago Center
01:14AM 42.0686 -86.1778 264° West 150 173 6,000  Level Chicago Center
01:16AM 42.0653 -86.2364 266° West 155 178 6,000  Level Chicago Center
01:17AM 42.0606 -86.2917 263° West 153 176 6,000 240 Level Chicago Center
01:18AM 42.0581 -86.3494 267° West 153 176 6,600 840 Climbing Chicago Center
01:19AM 42.0564 -86.3925 267° West 120 138 7,700 660 Climbing Chicago Center
01:20AM 42.0531 -86.4389 264° West 122 140 8,000 120 Climbing Chicago Center
01:21AM 42.0522 -86.4972 269° West 150 173 8,000  Level Chicago Center
01:22AM 42.0436 -86.5533 258° West 156 180 8,000  Level Chicago Center
01:23AM 42.0394 -86.6111 264° West 156 180 8,000  Level Chicago Center
01:24AM 42.0344 -86.6694 263° West 158 182 8,000  Level Chicago Center
01:25AM 42.0311 -86.7308 266° West 156 180 8,000  Level Chicago Center
01:26AM 42.0253 -86.7886 262° West 159 183 8,000  Level Chicago Center
01:27AM 42.0217 -86.8472 265° West 158 182 8,000  Level Chicago Center
01:28AM 42.0172 -86.9067 264° West 161 185 8,000  Level Chicago Center
01:29AM 42.0119 -86.9647 263° West 160 184 8,000  Level Chicago Center
01:30AM 42.0078 -87.0250 265° West 163 188 8,000 -60 Level Chicago Center
01:31AM 41.9825 -87.0756 236° Southwest 168 193 7,900 -240 Descending Chicago Center
01:32AM 41.9522 -87.1372 237° Southwest 168 193 7,600 -420 Descending Chicago Center
01:33AM 41.9250 -87.1939 237° Southwest 180 207 7,100 -600 Descending Chicago Center
01:34AM 41.8981 -87.2508 238° Southwest 182 209 6,500 -600 Descending Chicago Center
01:35AM 41.8728 -87.3094 240° Southwest 183 211 6,000 -360 Descending Chicago Center
01:36AM 41.8469 -87.3669 239° Southwest 182 209 5,800 -120 Descending Chicago Center
01:37AM 41.8258 -87.4183 241° Southwest 164 189 5,800  Level Chicago Center
01:38AM 41.8036 -87.4683 239° Southwest 158 182 5,800  Level Chicago Center
01:39AM 41.7822 -87.5192 241° Southwest 158 182 5,800  Level Chicago Center
01:40AM 41.7611 -87.5719 242° Southwest 160 184 5,800  Level Chicago Center
01:41AM 41.7403 -87.6231 241° Southwest 159 183 5,800  Level Chicago Center
01:42AM 41.7211 -87.6736 243° Southwest 156 180 5,800  Level Chicago Center
01:43AM 41.7117 -87.7236 256° West 150 173 5,800 -120 Level Chicago Center
01:44AM 41.7247 -87.7775 288° West 154 177 5,600 -480 Descending Chicago Center
01:45AM 41.7297 -87.8386 276° West 160 184 4,900 -660 Descending Chicago Center
01:46AM 41.7375 -87.9008 280° West 167 192 4,300 -600 Descending Chicago Center
01:47AM 41.7500 -87.9728 283° West 168 193 3,800 -720 Descending Chicago Center
01:48AM 41.7617 -88.0300 285° West 165 190 2,900 -660 Descending Chicago Center
01:49AM 41.7742 -88.0894 286° West 166 191 2,500 -300 Descending Chicago Center
01:50AM 41.7989 -88.1400 303° West 164 189 2,300 -120 Descending Chicago Center
01:51AM 41.8308 -88.1808 316° Northwest 173 199 2,300 -60 Level Chicago Center
01:52AM 41.8722 -88.2081 334° Northwest 171 197 2,200 -120 Descending Chicago Center
01:55AM 41.9000 -88.2333 296° West  Level FlightAware Approximate